Time;durP1;ratioP1;P1;durP2;ratioP2;P2;SDS_P1;SDS_P2;PMS_P1;PMS_P2;Temp;Humidity;BMP_temperature;BMP_pressure;BME280_temperature;BME280_humidity;BME280_pressure;Samples;Min_cycle;Max_cycle;Signal;HPM_P1;HPM_P2
2023/03/12 00:01:52;;;;;;;11.27;9.93;;;-0.40;99.90;;;;;;5048792;28;20076;-72
2023/03/12 00:04:18;;;;;;;14.43;9.83;;;-0.40;99.90;;;;;;5041955;28;20045;-72
2023/03/12 00:06:43;;;;;;;10.43;9.33;;;-0.40;99.90;;;;;;5055914;28;20267;-72
2023/03/12 00:09:09;;;;;;;13.23;11.63;;;-0.50;99.90;;;;;;5025157;28;20040;-71
2023/03/12 00:11:35;;;;;;;15.07;12.30;;;-0.50;99.90;;;;;;5070257;28;20060;-71
2023/03/12 00:14:00;;;;;;;15.77;11.27;;;-0.50;99.90;;;;;;5039982;28;20506;-71
2023/03/12 00:16:27;;;;;;;12.90;11.00;;;-0.50;99.90;;;;;;5062128;28;20131;-72
2023/03/12 00:18:55;;;;;;;12.70;10.93;;;-0.50;99.90;;;;;;5019423;28;20052;-72
2023/03/12 00:21:22;;;;;;;13.23;9.80;;;-0.50;99.90;;;;;;5045030;28;20498;-71
2023/03/12 00:23:48;;;;;;;10.77;9.27;;;-0.50;99.90;;;;;;5062494;28;20048;-72
2023/03/12 00:26:15;;;;;;;12.40;10.63;;;-0.50;99.90;;;;;;5047995;28;20045;-72
2023/03/12 00:28:41;;;;;;;9.87;8.70;;;-0.50;99.90;;;;;;5037142;28;20071;-71
2023/03/12 00:31:16;;;;;;;11.13;9.13;;;-0.60;99.90;;;;;;5037456;28;20043;-71
2023/03/12 00:33:42;;;;;;;9.70;8.70;;;-0.60;99.90;;;;;;5047639;28;20072;-72
2023/03/12 00:36:08;;;;;;;11.77;10.40;;;-0.60;99.90;;;;;;5012743;28;20482;-72
2023/03/12 00:38:37;;;;;;;14.83;11.77;;;-0.70;99.90;;;;;;5089066;28;20044;-72
2023/03/12 00:41:03;;;;;;;12.27;10.87;;;-0.60;99.90;;;;;;5062517;28;20123;-72
2023/03/12 00:43:28;;;;;;;15.40;11.73;;;-0.60;99.90;;;;;;5040408;28;20463;-73
2023/03/12 00:45:55;;;;;;;18.00;14.63;;;-0.60;99.90;;;;;;5053428;28;20049;-72
2023/03/12 00:48:20;;;;;;;14.97;11.53;;;-0.50;99.90;;;;;;5027948;28;20057;-72
2023/03/12 00:50:46;;;;;;;15.37;11.97;;;-0.50;99.90;;;;;;5042202;28;20105;-72
2023/03/12 00:53:12;;;;;;;13.77;10.67;;;-0.50;99.90;;;;;;5055461;28;20068;-72
2023/03/12 00:55:38;;;;;;;13.77;12.37;;;-0.40;99.90;;;;;;5041840;28;20079;-72
2023/03/12 00:58:04;;;;;;;14.00;10.97;;;-0.40;99.90;;;;;;5055861;28;20535;-72
2023/03/12 01:00:30;;;;;;;14.50;12.57;;;-0.40;99.90;;;;;;5041224;28;20046;-72
2023/03/12 01:02:56;;;;;;;13.50;12.10;;;-0.50;99.90;;;;;;5068763;28;20037;-72
2023/03/12 01:05:22;;;;;;;13.17;11.00;;;-0.40;99.90;;;;;;5020747;28;20458;-72
2023/03/12 01:07:48;;;;;;;14.83;12.10;;;-0.50;99.90;;;;;;5015061;28;21007;-73
2023/03/12 01:10:18;;;;;;;16.83;11.63;;;-0.50;99.90;;;;;;5044204;28;20076;-73
2023/03/12 01:12:44;;;;;;;13.67;11.70;;;-0.50;99.90;;;;;;5078760;28;20033;-72
2023/03/12 01:15:14;;;;;;;14.90;12.73;;;-0.40;99.90;;;;;;5042403;28;20518;-71
2023/03/12 01:17:40;;;;;;;13.45;11.95;;;-0.50;99.90;;;;;;5049359;28;20477;-72
2023/03/12 01:20:07;;;;;;;12.93;10.57;;;-0.50;99.90;;;;;;5036910;28;21151;-72
2023/03/12 01:22:33;;;;;;;12.33;11.03;;;-0.50;99.90;;;;;;5092141;28;20040;-72
2023/03/12 01:24:59;;;;;;;13.70;10.83;;;-0.50;99.90;;;;;;5041723;28;20576;-72
2023/03/12 01:27:25;;;;;;;14.33;11.63;;;-0.40;99.90;;;;;;5020918;28;20049;-72
2023/03/12 01:29:51;;;;;;;11.57;10.40;;;-0.40;99.90;;;;;;5068269;28;20028;-72
2023/03/12 01:32:17;;;;;;;13.10;11.33;;;-0.40;99.90;;;;;;5036994;28;20040;-72
2023/03/12 01:34:44;;;;;;;12.07;10.77;;;-0.40;99.90;;;;;;5041572;28;20097;-72
2023/03/12 01:37:10;;;;;;;13.37;11.37;;;-0.30;99.90;;;;;;5026716;28;20041;-72
2023/03/12 01:39:36;;;;;;;13.40;11.30;;;-0.30;99.90;;;;;;5044052;28;20037;-71
2023/03/12 01:42:02;;;;;;;16.63;12.70;;;-0.30;99.90;;;;;;5044174;28;20045;-74
2023/03/12 01:44:28;;;;;;;14.90;11.70;;;-0.30;99.90;;;;;;5049764;28;20045;-74
2023/03/12 01:46:54;;;;;;;14.20;12.40;;;-0.30;99.90;;;;;;5057615;28;20805;-70
2023/03/12 01:49:24;;;;;;;15.07;12.60;;;-0.20;99.90;;;;;;5029581;28;20614;-72
2023/03/12 01:52:08;;;;;;;15.85;12.10;;;-0.20;99.90;;;;;;5095565;28;20036;-72
2023/03/12 01:54:42;;;;;;;14.80;11.53;;;-0.10;99.90;;;;;;5057599;28;20468;-72
2023/03/12 01:57:12;;;;;;;16.13;12.00;;;-0.10;99.90;;;;;;5044461;28;20044;-72
2023/03/12 01:59:50;;;;;;;16.33;11.88;;;-0.10;99.90;;;;;;5064420;28;20048;-72
2023/03/12 02:02:18;;;;;;;13.93;11.97;;;-0.10;99.90;;;;;;5062809;28;20118;-71
2023/03/12 02:04:46;;;;;;;13.67;11.87;;;0.00;99.90;;;;;;5051504;28;20573;-71
2023/03/12 02:07:19;;;;;;;12.40;11.10;;;-0.10;99.90;;;;;;5030934;28;20032;-71
2023/03/12 02:09:48;;;;;;;12.93;10.60;;;-0.10;99.90;;;;;;5078356;28;20465;-71
2023/03/12 02:12:16;;;;;;;14.07;11.50;;;0.00;99.90;;;;;;5045512;28;20051;-70
2023/03/12 02:14:42;;;;;;;16.60;12.37;;;0.10;99.90;;;;;;5058583;28;20044;-72
2023/03/12 02:17:09;;;;;;;16.87;12.03;;;0.20;99.90;;;;;;5076940;28;20056;-72
2023/03/12 02:19:40;;;;;;;13.47;11.80;;;0.10;99.90;;;;;;5044127;28;20080;-72
2023/03/12 02:22:07;;;;;;;14.73;12.70;;;0.20;99.90;;;;;;5100552;27;20054;-74
2023/03/12 02:24:45;;;;;;;15.80;12.13;;;0.20;99.90;;;;;;5031407;28;20052;-74
2023/03/12 02:27:11;;;;;;;14.90;11.47;;;0.20;99.90;;;;;;5067302;28;20055;-72
2023/03/12 02:29:40;;;;;;;14.77;11.80;;;0.30;99.90;;;;;;5045650;28;20044;-74
2023/03/12 02:32:08;;;;;;;17.47;12.43;;;0.20;99.90;;;;;;5069576;28;20063;-74
2023/03/12 02:34:34;;;;;;;14.47;12.17;;;0.20;99.90;;;;;;5046453;28;20495;-72
2023/03/12 02:37:00;;;;;;;14.23;11.73;;;0.20;99.90;;;;;;5064218;28;20044;-72
2023/03/12 02:39:27;;;;;;;14.30;12.37;;;0.20;99.90;;;;;;5046206;28;20044;-70
2023/03/12 02:41:58;;;;;;;15.13;11.10;;;0.30;99.90;;;;;;5045919;28;20145;-74
2023/03/12 02:44:28;;;;;;;18.70;11.77;;;0.30;99.90;;;;;;5045586;28;20098;-74
2023/03/12 02:46:56;;;;;;;14.38;11.90;;;0.30;99.90;;;;;;5042517;28;20445;-74
2023/03/12 02:49:25;;;;;;;14.40;10.57;;;0.20;99.90;;;;;;5068893;28;20094;-73
2023/03/12 02:51:52;;;;;;;13.03;10.80;;;0.30;99.90;;;;;;5037964;28;20048;-72
2023/03/12 02:54:19;;;;;;;12.83;10.50;;;0.30;99.90;;;;;;5062069;28;20033;-74
2023/03/12 02:56:45;;;;;;;14.63;9.73;;;0.30;99.90;;;;;;5063909;28;20083;-71
2023/03/12 02:59:13;;;;;;;12.07;9.00;;;0.30;99.90;;;;;;5061762;28;20036;-72
2023/03/12 03:01:39;;;;;;;10.90;9.47;;;0.30;99.90;;;;;;5011726;28;20060;-72
2023/03/12 03:04:07;;;;;;;10.33;8.03;;;0.30;99.90;;;;;;5039047;28;20565;-72
2023/03/12 03:06:34;;;;;;;11.67;8.43;;;0.40;99.90;;;;;;5050172;28;20045;-72
2023/03/12 03:09:00;;;;;;;12.23;9.13;;;0.40;99.90;;;;;;5094228;28;20132;-73
2023/03/12 03:11:26;;;;;;;11.90;8.60;;;0.30;99.90;;;;;;5090944;28;20127;-73
2023/03/12 03:13:53;;;;;;;10.03;8.43;;;0.50;99.90;;;;;;5026605;28;20040;-72
2023/03/12 03:16:19;;;;;;;11.80;8.07;;;0.40;99.90;;;;;;5043847;28;20502;-72
2023/03/12 03:18:45;;;;;;;9.97;7.80;;;0.50;99.90;;;;;;5044303;28;20620;-72
2023/03/12 03:21:15;;;;;;;10.93;8.27;;;0.40;99.90;;;;;;5049551;28;20108;-72
2023/03/12 03:23:42;;;;;;;10.80;7.75;;;0.50;99.90;;;;;;5065140;28;20040;-72
2023/03/12 03:26:09;;;;;;;10.17;7.53;;;0.50;99.90;;;;;;5043228;28;20032;-72
2023/03/12 03:28:35;;;;;;;10.67;7.77;;;0.50;99.90;;;;;;5043430;28;20055;-72
2023/03/12 03:31:01;;;;;;;10.80;8.97;;;0.50;99.90;;;;;;5062649;28;20045;-72
2023/03/12 03:33:28;;;;;;;10.13;7.80;;;0.70;99.90;;;;;;5050681;28;20087;-71
2023/03/12 03:35:55;;;;;;;9.83;7.90;;;0.50;99.90;;;;;;5064042;28;20130;-71
2023/03/12 03:38:22;;;;;;;10.43;7.60;;;0.50;99.90;;;;;;5056698;28;20522;-72
2023/03/12 03:40:47;;;;;;;9.77;7.33;;;0.60;99.90;;;;;;5060335;28;20125;-72
2023/03/12 03:43:14;;;;;;;10.70;7.67;;;0.60;99.90;;;;;;5050201;28;20569;-73
2023/03/12 03:45:40;;;;;;;8.53;7.67;;;0.60;99.90;;;;;;5060600;28;20094;-73
2023/03/12 03:48:06;;;;;;;10.90;7.90;;;0.50;99.90;;;;;;5032009;28;20052;-70
2023/03/12 03:50:31;;;;;;;10.63;7.40;;;0.60;99.90;;;;;;5059682;28;20039;-71
2023/03/12 03:52:57;;;;;;;9.60;7.80;;;0.60;99.90;;;;;;5021066;28;20064;-73
2023/03/12 03:55:23;;;;;;;10.87;8.67;;;0.70;99.90;;;;;;5059077;28;20051;-72
2023/03/12 03:57:49;;;;;;;10.37;7.17;;;0.70;99.90;;;;;;5043896;28;20495;-72
2023/03/12 04:00:16;;;;;;;11.17;7.80;;;0.80;99.90;;;;;;5074885;28;20081;-72
2023/03/12 04:02:43;;;;;;;10.57;7.00;;;0.70;99.90;;;;;;5015586;28;20141;-72
2023/03/12 04:05:10;;;;;;;9.27;8.00;;;0.70;99.90;;;;;;5045271;28;20032;-72
2023/03/12 04:07:36;;;;;;;12.70;7.77;;;0.70;99.90;;;;;;5062428;28;20123;-72
2023/03/12 04:10:03;;;;;;;10.20;7.90;;;0.80;99.90;;;;;;5059601;28;20622;-72
2023/03/12 04:12:29;;;;;;;9.83;7.63;;;0.80;99.90;;;;;;5061074;28;20486;-74
2023/03/12 04:14:55;;;;;;;11.10;7.67;;;0.80;99.90;;;;;;5063717;28;20046;-72
2023/03/12 04:17:21;;;;;;;9.40;7.97;;;0.80;99.90;;;;;;5061176;28;20138;-72
2023/03/12 04:19:47;;;;;;;12.20;7.90;;;0.80;99.90;;;;;;5061189;28;20054;-72
2023/03/12 04:22:13;;;;;;;12.17;7.83;;;0.80;99.90;;;;;;5061236;28;20437;-72
2023/03/12 04:24:38;;;;;;;10.87;8.07;;;0.80;99.90;;;;;;5064504;28;20044;-71
2023/03/12 04:27:05;;;;;;;10.03;7.73;;;0.80;99.90;;;;;;5041589;28;20826;-71
2023/03/12 04:29:30;;;;;;;10.73;8.30;;;0.90;99.90;;;;;;5061878;28;20052;-71
2023/03/12 04:31:56;;;;;;;9.63;8.13;;;0.90;99.90;;;;;;5049562;28;20052;-71
2023/03/12 04:34:22;;;;;;;10.77;7.37;;;0.80;99.90;;;;;;5048570;28;20036;-71
2023/03/12 04:36:48;;;;;;;12.37;8.37;;;0.90;99.90;;;;;;5038817;28;20517;-71
2023/03/12 04:39:18;;;;;;;11.20;7.83;;;0.90;99.90;;;;;;5042215;28;20067;-71
2023/03/12 04:41:44;;;;;;;10.18;7.50;;;0.90;99.90;;;;;;5042743;28;20106;-71
2023/03/12 04:44:10;;;;;;;11.90;7.70;;;0.90;99.90;;;;;;5058435;28;20029;-72
2023/03/12 04:46:36;;;;;;;10.10;7.57;;;1.00;99.90;;;;;;5045011;28;20122;-71
2023/03/12 04:49:03;;;;;;;11.47;7.10;;;1.00;99.90;;;;;;5057178;28;20501;-71
2023/03/12 04:51:30;;;;;;;11.07;7.40;;;1.00;99.90;;;;;;5092877;28;20137;-71
2023/03/12 04:53:57;;;;;;;10.20;6.93;;;1.00;99.90;;;;;;5046867;28;20597;-71
2023/03/12 04:56:23;;;;;;;10.60;7.50;;;1.00;99.90;;;;;;5060840;28;20051;-71
2023/03/12 04:58:48;;;;;;;9.83;7.13;;;1.00;99.90;;;;;;5059594;28;20048;-71
2023/03/12 05:01:29;;;;;;;11.07;7.63;;;1.00;99.90;;;;;;5039765;28;20577;-71
2023/03/12 05:03:55;;;;;;;12.82;7.63;;;1.10;99.90;;;;;;5047087;28;20402;-71
2023/03/12 05:06:22;;;;;;;9.77;7.07;;;1.10;99.90;;;;;;5033456;28;20119;-71
2023/03/12 05:08:48;;;;;;;11.40;7.20;;;1.10;99.90;;;;;;5044785;28;20056;-72
2023/03/12 05:11:14;;;;;;;11.00;6.83;;;1.10;99.90;;;;;;5044643;28;20521;-71
2023/03/12 05:13:41;;;;;;;11.40;7.30;;;1.00;99.90;;;;;;5039428;28;20051;-72
2023/03/12 05:16:07;;;;;;;12.23;7.23;;;1.10;99.90;;;;;;5046624;28;20044;-71
2023/03/12 05:18:34;;;;;;;13.00;7.33;;;1.10;99.90;;;;;;5075851;28;20055;-71
2023/03/12 05:21:02;;;;;;;10.33;7.67;;;1.10;99.90;;;;;;5063117;28;20044;-71
2023/03/12 05:23:28;;;;;;;12.03;7.27;;;1.10;99.90;;;;;;5057377;28;20044;-71
2023/03/12 05:25:54;;;;;;;9.90;7.20;;;1.10;99.90;;;;;;5047064;28;20484;-72
2023/03/12 05:28:21;;;;;;;10.30;7.13;;;1.20;99.90;;;;;;5055361;28;20356;-71
2023/03/12 05:30:47;;;;;;;8.93;7.13;;;1.10;99.90;;;;;;5101275;27;20047;-71
2023/03/12 05:33:13;;;;;;;9.20;7.47;;;1.10;99.90;;;;;;5111590;27;20552;-70
2023/03/12 05:35:38;;;;;;;11.50;8.10;;;1.10;99.90;;;;;;5109157;27;20059;-71
2023/03/12 05:38:04;;;;;;;10.07;7.43;;;1.20;99.90;;;;;;5080250;28;20139;-71
2023/03/12 05:40:30;;;;;;;12.37;7.80;;;1.10;99.90;;;;;;5066903;28;20040;-71
2023/03/12 05:42:56;;;;;;;11.10;8.13;;;1.20;99.90;;;;;;5083515;28;20051;-72
2023/03/12 05:45:21;;;;;;;9.93;7.83;;;1.30;99.90;;;;;;5067663;28;20085;-71
2023/03/12 05:47:47;;;;;;;9.70;7.43;;;1.20;99.90;;;;;;5055942;28;20149;-70
2023/03/12 05:50:15;;;;;;;11.10;8.07;;;1.20;99.90;;;;;;5049564;28;20384;-70
2023/03/12 05:52:41;;;;;;;10.07;7.83;;;1.20;99.90;;;;;;5042260;28;20058;-70
2023/03/12 05:55:07;;;;;;;12.93;7.80;;;1.20;99.90;;;;;;5070575;28;20040;-70
2023/03/12 05:57:33;;;;;;;12.67;7.57;;;1.20;99.90;;;;;;5052312;28;20036;-70
2023/03/12 05:59:58;;;;;;;12.20;8.13;;;1.20;99.90;;;;;;5034300;28;20090;-70
2023/03/12 06:02:27;;;;;;;18.43;8.43;;;1.30;99.90;;;;;;5049539;28;20482;-70
2023/03/12 06:04:53;;;;;;;10.30;7.73;;;1.20;99.90;;;;;;5049754;28;20039;-69
2023/03/12 06:07:19;;;;;;;10.90;8.13;;;1.20;99.90;;;;;;5030873;28;20044;-70
2023/03/12 06:09:44;;;;;;;11.10;7.97;;;1.20;99.90;;;;;;5067030;28;20048;-69
2023/03/12 06:12:10;;;;;;;13.23;8.77;;;1.20;99.90;;;;;;5070614;28;20047;-71
2023/03/12 06:14:36;;;;;;;9.97;7.87;;;1.20;99.90;;;;;;5064791;28;20055;-71
2023/03/12 06:17:02;;;;;;;11.27;8.20;;;1.20;99.90;;;;;;5042232;28;20109;-71
2023/03/12 06:19:28;;;;;;;13.10;8.57;;;1.30;99.90;;;;;;5063345;28;20332;-71
2023/03/12 06:21:53;;;;;;;10.60;8.17;;;1.30;99.90;;;;;;5041659;28;20109;-71
2023/03/12 06:24:19;;;;;;;11.47;9.13;;;1.30;99.90;;;;;;5075233;28;20406;-71
2023/03/12 06:26:45;;;;;;;10.83;8.80;;;1.30;99.90;;;;;;5093153;28;20047;-72
2023/03/12 06:29:11;;;;;;;11.00;8.73;;;1.30;99.90;;;;;;5051656;28;20050;-72
2023/03/12 06:31:38;;;;;;;11.77;8.77;;;1.40;99.90;;;;;;5045855;28;20044;-70
2023/03/12 06:34:09;;;;;;;10.47;8.80;;;1.30;99.90;;;;;;5063148;28;20048;-70
2023/03/12 06:36:35;;;;;;;13.47;8.30;;;1.30;99.90;;;;;;5051382;28;20039;-71
2023/03/12 06:39:00;;;;;;;12.33;8.83;;;1.40;99.90;;;;;;5010944;28;20036;-71
2023/03/12 06:41:26;;;;;;;11.77;8.40;;;1.40;99.90;;;;;;5060786;28;20051;-71
2023/03/12 06:43:52;;;;;;;14.50;9.20;;;1.40;99.90;;;;;;5036457;28;20040;-70
2023/03/12 06:46:24;;;;;;;11.27;8.70;;;1.40;99.90;;;;;;5074389;28;20056;-73
2023/03/12 06:48:50;;;;;;;11.87;8.83;;;1.50;99.90;;;;;;5030785;28;20487;-71
2023/03/12 06:51:16;;;;;;;13.37;9.03;;;1.40;99.90;;;;;;5025826;28;20051;-71
2023/03/12 06:53:43;;;;;;;12.00;8.07;;;1.50;99.90;;;;;;5033438;28;21207;-71
2023/03/12 06:56:10;;;;;;;11.67;8.60;;;1.50;99.90;;;;;;5062180;28;20071;-73
2023/03/12 06:58:36;;;;;;;12.57;8.93;;;1.50;99.90;;;;;;5061947;28;20082;-72
2023/03/12 07:01:02;;;;;;;15.10;8.67;;;1.60;99.90;;;;;;5091156;28;20122;-72
2023/03/12 07:03:31;;;;;;;11.07;9.37;;;1.60;99.90;;;;;;5041548;28;20096;-73
2023/03/12 07:05:58;;;;;;;12.23;9.83;;;1.60;99.90;;;;;;5043507;28;20040;-73
2023/03/12 07:08:24;;;;;;;12.43;10.03;;;1.60;99.90;;;;;;5057269;28;20040;-73
2023/03/12 07:10:50;;;;;;;13.33;10.00;;;1.60;99.90;;;;;;5050993;28;20510;-71
2023/03/12 07:13:16;;;;;;;12.33;10.03;;;1.60;99.90;;;;;;5048610;28;20488;-71
2023/03/12 07:15:44;;;;;;;15.80;10.43;;;1.60;99.90;;;;;;5063015;28;20084;-71
2023/03/12 07:18:11;;;;;;;12.23;10.80;;;1.60;99.90;;;;;;5062573;28;20760;-71
2023/03/12 07:20:39;;;;;;;13.40;10.97;;;1.60;99.90;;;;;;5085206;28;20120;-72
2023/03/12 07:23:05;;;;;;;12.37;11.03;;;1.50;99.90;;;;;;5085300;27;20252;-71
2023/03/12 07:25:33;;;;;;;14.20;11.60;;;1.50;99.90;;;;;;5090387;27;20048;-72
2023/03/12 07:27:59;;;;;;;14.57;11.97;;;1.50;99.90;;;;;;5036857;28;20036;-71
2023/03/12 07:30:25;;;;;;;17.90;13.07;;;1.50;99.90;;;;;;5043877;28;20062;-72
2023/03/12 07:32:50;;;;;;;14.43;12.60;;;1.40;99.90;;;;;;5011371;28;20082;-74
2023/03/12 07:35:19;;;;;;;15.37;13.70;;;1.40;99.90;;;;;;5044255;28;20036;-73
2023/03/12 07:37:45;;;;;;;15.73;14.10;;;1.40;99.90;;;;;;5075062;28;20728;-73
2023/03/12 07:40:11;;;;;;;15.30;13.70;;;1.50;99.90;;;;;;5078408;28;20509;-72
2023/03/12 07:42:37;;;;;;;17.33;15.53;;;1.40;99.90;;;;;;5034746;28;20040;-73
2023/03/12 07:45:03;;;;;;;17.27;15.47;;;1.40;99.90;;;;;;5059992;28;20048;-73
2023/03/12 07:47:29;;;;;;;19.27;16.37;;;1.40;99.90;;;;;;5045203;28;20322;-73
2023/03/12 07:49:55;;;;;;;19.03;17.13;;;1.50;99.90;;;;;;5048861;28;20083;-73
2023/03/12 07:52:22;;;;;;;18.20;16.33;;;1.40;99.90;;;;;;5093996;27;20088;-73
2023/03/12 07:54:48;;;;;;;19.47;17.00;;;1.40;99.90;;;;;;5045330;28;20333;-73
2023/03/12 07:57:13;;;;;;;19.63;17.73;;;1.40;99.90;;;;;;5049244;28;20047;-73
2023/03/12 07:59:39;;;;;;;17.97;16.17;;;1.30;99.90;;;;;;5060184;28;20514;-74
2023/03/12 08:02:06;;;;;;;18.30;16.47;;;1.30;99.90;;;;;;5042802;28;20052;-74
2023/03/12 08:04:31;;;;;;;18.40;16.30;;;1.30;99.90;;;;;;5048996;28;20520;-74
2023/03/12 08:06:57;;;;;;;19.07;17.20;;;1.30;99.90;;;;;;5046135;28;20057;-74
2023/03/12 08:09:23;;;;;;;17.60;15.80;;;1.30;99.90;;;;;;5049275;28;20436;-74
2023/03/12 08:11:48;;;;;;;19.20;17.23;;;1.40;99.90;;;;;;5094090;27;20211;-73
2023/03/12 08:14:14;;;;;;;18.10;16.40;;;1.40;99.90;;;;;;5049830;28;20031;-74
2023/03/12 08:16:40;;;;;;;18.60;16.60;;;1.40;99.90;;;;;;5042866;28;20048;-74
2023/03/12 08:19:06;;;;;;;18.50;16.37;;;1.40;99.90;;;;;;5061859;28;20505;-74
2023/03/12 08:21:31;;;;;;;18.80;16.90;;;1.40;99.90;;;;;;5053472;28;20098;-73
2023/03/12 08:23:57;;;;;;;17.57;15.70;;;1.40;99.90;;;;;;5071307;28;20057;-74
2023/03/12 08:26:26;;;;;;;18.07;16.27;;;1.40;99.90;;;;;;5024818;28;20445;-74
2023/03/12 08:28:51;;;;;;;19.33;16.73;;;1.40;99.90;;;;;;5035169;28;20146;-74
2023/03/12 08:31:17;;;;;;;18.13;16.23;;;1.40;99.90;;;;;;5064052;28;20123;-74
2023/03/12 08:33:45;;;;;;;18.70;16.80;;;1.40;99.90;;;;;;5046304;28;20055;-74
2023/03/12 08:36:11;;;;;;;19.73;17.20;;;1.40;99.90;;;;;;5081740;28;20583;-72
2023/03/12 08:38:37;;;;;;;18.83;16.83;;;1.40;99.90;;;;;;5060288;28;20093;-71
2023/03/12 08:41:03;;;;;;;18.43;16.73;;;1.50;99.90;;;;;;5044421;28;20048;-74
2023/03/12 08:43:29;;;;;;;23.53;16.77;;;1.50;99.90;;;;;;5054248;28;20514;-74
2023/03/12 08:45:57;;;;;;;18.57;16.67;;;1.60;99.90;;;;;;5076151;28;20053;-73
2023/03/12 08:48:23;;;;;;;22.63;18.37;;;1.60;99.90;;;;;;5056197;28;20044;-73
2023/03/12 08:50:49;;;;;;;19.97;16.80;;;1.60;99.90;;;;;;5036262;28;20052;-72
2023/03/12 08:53:16;;;;;;;20.50;18.60;;;1.70;99.90;;;;;;5059635;28;20133;-73
2023/03/12 08:55:42;;;;;;;18.43;16.53;;;1.70;99.90;;;;;;5064611;28;20131;-74
2023/03/12 08:58:08;;;;;;;20.47;17.13;;;1.70;99.90;;;;;;5038635;28;20482;-74
2023/03/12 09:00:34;;;;;;;19.93;17.13;;;1.70;99.90;;;;;;5055600;28;20051;-74
2023/03/12 09:03:00;;;;;;;19.77;17.60;;;1.80;99.90;;;;;;5045054;28;20075;-73
2023/03/12 09:05:28;;;;;;;22.07;18.47;;;1.80;99.90;;;;;;5066791;28;20133;-73
2023/03/12 09:07:56;;;;;;;21.37;19.00;;;1.80;99.90;;;;;;5053029;28;20040;-73
2023/03/12 09:10:22;;;;;;;20.93;18.83;;;1.80;99.90;;;;;;5052370;28;20040;-74
2023/03/12 09:12:47;;;;;;;21.23;19.03;;;1.90;99.90;;;;;;5034639;28;20044;-74
2023/03/12 09:15:13;;;;;;;21.00;18.87;;;1.90;99.90;;;;;;5044573;28;20101;-73
2023/03/12 09:17:40;;;;;;;22.60;20.30;;;1.90;99.90;;;;;;5046639;28;20115;-73
2023/03/12 09:20:09;;;;;;;21.97;19.93;;;1.90;99.90;;;;;;5058870;28;20056;-73
2023/03/12 09:22:35;;;;;;;22.90;20.67;;;1.90;99.90;;;;;;5057452;28;20070;-74
2023/03/12 09:25:07;;;;;;;23.87;20.63;;;2.00;99.90;;;;;;5035495;28;20048;-74
2023/03/12 09:27:41;;;;;;;24.10;21.73;;;2.00;99.90;;;;;;5071488;28;20045;-74
2023/03/12 09:30:10;;;;;;;27.17;24.47;;;2.00;99.90;;;;;;5085383;28;20036;-74
2023/03/12 09:32:35;;;;;;;25.93;23.13;;;2.00;99.90;;;;;;5052449;28;20032;-74
2023/03/12 09:35:01;;;;;;;26.00;23.30;;;2.10;99.90;;;;;;5088968;28;20055;-74
2023/03/12 09:37:31;;;;;;;26.50;23.87;;;2.10;99.90;;;;;;5042324;28;20044;-74
2023/03/12 09:39:57;;;;;;;26.33;23.80;;;2.10;99.90;;;;;;5042935;28;20059;-74
2023/03/12 09:42:51;;;;;;;27.70;25.00;;;2.10;99.90;;;;;;5066464;28;20307;-74
2023/03/12 09:45:40;;;;;;;25.67;23.20;;;2.10;99.90;;;;;;5040778;28;20053;-75
2023/03/12 09:48:35;;;;;;;30.37;27.30;;;2.20;99.90;;;;;;5062292;28;20238;-75
2023/03/12 09:51:12;;;;;;;28.07;25.47;;;2.20;99.90;;;;;;5057006;28;20123;-73
2023/03/12 09:53:47;;;;;;;28.37;25.67;;;2.20;99.90;;;;;;5046756;28;20060;-73
2023/03/12 09:56:18;;;;;;;29.17;26.57;;;2.20;99.90;;;;;;5062290;28;20079;-74
2023/03/12 09:58:53;;;;;;;31.50;28.60;;;2.30;99.90;;;;;;5039165;28;20102;-74
2023/03/12 10:01:46;;;;;;;29.00;26.20;;;2.30;99.90;;;;;;5037153;28;20304;-74
2023/03/12 10:04:18;;;;;;;30.37;27.43;;;2.30;99.90;;;;;;5045537;28;20522;-76
2023/03/12 10:07:10;;;;;;;32.33;29.20;;;2.20;99.90;;;;;;5061564;28;20494;-74
2023/03/12 10:10:15;;;;;;;33.50;30.13;;;2.30;99.90;;;;;;5082109;28;20063;-73
2023/03/12 10:12:53;;;;;;;36.73;33.07;;;2.30;99.90;;;;;;5062040;28;20085;-75
2023/03/12 10:15:45;;;;;;;32.17;29.10;;;2.30;99.90;;;;;;5053050;28;20040;-75
2023/03/12 10:18:24;;;;;;;33.37;30.27;;;2.30;99.90;;;;;;5061308;28;20051;-74
2023/03/12 10:20:56;;;;;;;32.80;29.17;;;2.40;99.90;;;;;;5052845;28;20528;-75
2023/03/12 10:23:52;;;;;;;33.13;30.17;;;2.40;99.90;;;;;;5053728;28;20055;-74
2023/03/12 10:26:36;;;;;;;34.63;31.23;;;2.40;99.90;;;;;;5052919;28;20422;-74
2023/03/12 10:29:07;;;;;;;33.27;30.07;;;2.40;99.90;;;;;;5054953;28;20151;-74
2023/03/12 10:31:54;;;;;;;34.27;31.00;;;2.40;99.90;;;;;;5054417;28;20120;-74
2023/03/12 10:34:40;;;;;;;36.43;33.03;;;2.40;99.90;;;;;;5043612;28;20048;-74
2023/03/12 10:37:18;;;;;;;35.40;32.13;;;2.50;99.90;;;;;;5040902;28;20036;-74
2023/03/12 10:39:44;;;;;;;39.37;35.40;;;2.50;99.90;;;;;;5053762;28;20048;-74
2023/03/12 10:42:19;;;;;;;37.03;33.53;;;2.50;99.90;;;;;;5030228;28;20177;-76
2023/03/12 10:44:52;;;;;;;38.20;34.63;;;2.60;99.90;;;;;;5082178;28;20052;-77
2023/03/12 10:47:32;;;;;;;38.77;35.07;;;2.60;99.90;;;;;;5055343;28;20065;-75
2023/03/12 10:50:18;;;;;;;37.67;33.70;;;2.60;99.90;;;;;;5039423;28;20402;-76
2023/03/12 10:52:46;;;;;;;38.43;34.43;;;2.70;99.90;;;;;;5057455;28;20048;-76
2023/03/12 10:55:22;;;;;;;43.67;39.13;;;2.80;99.90;;;;;;5071295;28;20036;-77
2023/03/12 10:57:48;;;;;;;38.23;34.63;;;2.80;99.90;;;;;;5051386;28;20082;-74
2023/03/12 11:00:24;;;;;;;43.40;39.30;;;2.80;99.90;;;;;;5034009;28;20513;-74
2023/03/12 11:03:20;;;;;;;39.43;35.40;;;2.90;99.90;;;;;;5043504;28;20051;-74
2023/03/12 11:05:48;;;;;;;39.80;35.63;;;2.90;99.90;;;;;;5038250;28;20143;-73
2023/03/12 11:08:30;;;;;;;38.03;34.03;;;2.90;99.90;;;;;;5025109;28;20195;-74
2023/03/12 11:10:57;;;;;;;35.73;32.40;;;3.00;99.90;;;;;;5042186;28;20260;-74
2023/03/12 11:13:37;;;;;;;40.53;36.27;;;3.10;99.90;;;;;;5032413;28;20068;-74
2023/03/12 11:16:24;;;;;;;42.03;37.33;;;3.20;99.90;;;;;;5035179;28;20075;-74
2023/03/12 11:19:00;;;;;;;36.90;33.20;;;3.30;99.90;;;;;;5090943;28;20513;-74
2023/03/12 11:21:27;;;;;;;37.70;33.50;;;3.40;99.90;;;;;;5048096;28;20043;-74
2023/03/12 11:23:55;;;;;;;40.53;36.30;;;3.50;99.90;;;;;;5042988;28;20105;-74
2023/03/12 11:26:49;;;;;;;39.90;35.60;;;3.60;99.90;;;;;;5050240;28;20072;-74
2023/03/12 11:29:20;;;;;;;37.43;33.50;;;3.60;99.90;;;;;;5047685;28;20281;-74
2023/03/12 11:32:05;;;;;;;39.27;35.03;;;3.70;99.90;;;;;;5052451;28;20082;-74
2023/03/12 11:34:34;;;;;;;37.67;33.72;;;3.70;99.90;;;;;;5094005;27;20048;-74
2023/03/12 11:37:34;;;;;;;40.47;36.23;;;3.80;99.90;;;;;;5043346;28;20559;-75
2023/03/12 11:40:11;;;;;;;45.65;36.42;;;3.90;99.90;;;;;;5036017;28;20055;-76
2023/03/12 11:43:20;;;;;;;45.03;37.70;;;3.90;99.90;;;;;;5056232;28;20854;-76
2023/03/12 11:46:15;;;;;;;46.55;38.03;;;4.00;99.90;;;;;;4962303;28;20042;-75
2023/03/12 11:49:02;;;;;;;48.10;38.20;;;4.20;99.90;;;;;;4943019;28;20050;-75
2023/03/12 11:51:45;;;;;;;47.85;39.10;;;4.30;99.90;;;;;;5023313;28;20044;-75
2023/03/12 11:54:31;;;;;;;43.47;35.88;;;4.40;99.90;;;;;;5069452;28;20040;-74
2023/03/12 11:57:09;;;;;;;42.50;36.22;;;4.50;99.90;;;;;;5051408;28;20380;-74
2023/03/12 11:59:50;;;;;;;37.67;33.63;;;4.60;99.90;;;;;;5045762;28;20048;-74
2023/03/12 12:02:19;;;;;;;47.35;37.20;;;4.80;99.90;;;;;;5040736;28;20499;-74
2023/03/12 12:05:22;;;;;;;37.00;32.95;;;4.80;99.90;;;;;;5053479;28;20095;-74
2023/03/12 12:08:27;;;;;;;38.67;33.80;;;4.80;99.90;;;;;;5055945;28;20046;-74
2023/03/12 12:11:09;;;;;;;46.15;37.63;;;4.90;99.90;;;;;;5051262;28;20052;-75
2023/03/12 12:13:56;;;;;;;44.63;36.63;;;5.00;99.90;;;;;;5080668;28;20119;-74
2023/03/12 12:16:56;;;;;;;50.78;38.92;;;5.00;99.90;;;;;;5057728;28;20037;-74
2023/03/12 12:19:43;;;;;;;52.03;40.85;;;5.10;99.90;;;;;;5051268;28;20102;-74
2023/03/12 12:22:12;;;;;;;44.80;36.28;;;5.10;99.90;;;;;;5052028;28;20159;-75
2023/03/12 12:24:43;;;;;;;46.95;37.45;;;5.20;99.90;;;;;;5061831;28;20041;-74
2023/03/12 12:27:20;;;;;;;42.28;35.00;;;5.30;99.90;;;;;;5050931;28;20043;-75
2023/03/12 12:30:23;;;;;;;44.60;35.08;;;5.50;99.90;;;;;;5035623;28;20901;-74
2023/03/12 12:33:07;;;;;;;44.42;35.47;;;5.60;99.90;;;;;;5070728;28;20044;-74
2023/03/12 12:35:44;;;;;;;46.65;36.20;;;5.80;99.90;;;;;;5079935;28;20124;-74
2023/03/12 12:38:31;;;;;;;51.65;37.20;;;5.90;99.90;;;;;;5051784;28;20044;-74
2023/03/12 12:41:12;;;;;;;50.13;37.00;;;6.00;99.90;;;;;;5059452;28;20036;-74
2023/03/12 12:43:45;;;;;;;51.00;35.85;;;6.20;99.90;;;;;;5073900;28;20051;-74
2023/03/12 12:46:21;;;;;;;48.58;35.55;;;6.30;99.90;;;;;;5083403;28;20086;-74
2023/03/12 12:49:00;;;;;;;46.25;33.97;;;6.40;99.90;;;;;;5066909;28;20052;-74
2023/03/12 12:51:32;;;;;;;48.45;34.92;;;6.60;99.90;;;;;;5088027;28;20052;-74
2023/03/12 12:54:01;;;;;;;41.17;31.65;;;6.70;99.90;;;;;;5041273;28;20051;-74